createdAt,value
2023-01-17T00:01:34.226Z,93268.66
2023-01-17T00:04:38.855Z,93296.00
2023-01-17T00:07:43.891Z,93259.56
2023-01-17T00:10:30.086Z,93281.53
2023-01-17T00:13:16.201Z,93266.81
2023-01-17T00:16:02.287Z,93273.69
2023-01-17T00:19:08.436Z,93256.50
2023-01-17T00:22:13.283Z,93273.97
2023-01-17T00:25:18.081Z,93252.56
2023-01-17T00:28:04.323Z,93267.59
2023-01-17T00:30:50.183Z,93254.78
2023-01-17T00:33:36.478Z,93261.69
2023-01-17T00:36:22.638Z,93280.19
2023-01-17T00:39:09.003Z,93262.72
2023-01-17T00:41:55.169Z,93261.50
2023-01-17T00:45:00.295Z,93262.97
2023-01-17T00:48:05.104Z,93276.78
2023-01-17T00:51:09.950Z,93272.84
2023-01-17T00:54:14.667Z,93263.53
2023-01-17T00:57:19.083Z,93279.78
2023-01-17T01:00:23.829Z,93282.75
2023-01-17T01:03:28.962Z,93286.94
2023-01-17T01:06:33.810Z,93273.41
2023-01-17T01:09:38.829Z,93292.63
2023-01-17T01:12:43.504Z,93315.78
2023-01-17T01:15:48.393Z,93275.16
2023-01-17T01:18:53.116Z,93285.22
2023-01-17T01:21:57.761Z,93292.44
2023-01-17T01:25:02.526Z,93279.63
2023-01-17T01:28:07.715Z,93255.50
2023-01-17T01:31:12.354Z,93262.91
2023-01-17T01:33:58.523Z,93255.03
2023-01-17T01:36:44.539Z,93235.59
2023-01-17T01:39:30.527Z,93219.34
2023-01-17T01:42:16.628Z,93226.22
2023-01-17T01:45:03.786Z,93223.81
2023-01-17T01:47:50.308Z,93207.56
2023-01-17T01:50:37.519Z,93205.13
2023-01-17T01:53:23.352Z,93210.53
2023-01-17T01:56:11.052Z,93197.72
2023-01-17T01:58:57.118Z,93207.31
2023-01-17T02:01:43.652Z,93201.19
2023-01-17T02:04:30.297Z,93213.50
2023-01-17T02:07:24.041Z,93200.22
2023-01-17T02:10:10.479Z,93196.75
2023-01-17T02:12:56.605Z,93207.13
2023-01-17T02:15:42.960Z,93204.66
2023-01-17T02:18:35.206Z,93199.25
2023-01-17T02:21:22.448Z,93206.16
2023-01-17T02:24:17.983Z,93210.34
2023-01-17T02:27:07.832Z,93220.72
2023-01-17T02:30:12.165Z,93210.16
2023-01-17T02:32:58.530Z,93228.34
2023-01-17T02:35:49.237Z,93208.19
2023-01-17T02:38:41.683Z,93191.19
2023-01-17T02:41:32.147Z,93216.31
2023-01-17T02:44:18.910Z,93196.13
2023-01-17T02:47:15.991Z,93195.13
2023-01-17T02:50:03.670Z,93187.72
2023-01-17T02:52:49.435Z,93200.53
2023-01-17T02:55:56.039Z,93190.91
2023-01-17T02:59:05.397Z,93176.63
2023-01-17T03:01:54.629Z,93190.16
2023-01-17T03:04:42.392Z,93198.28
2023-01-17T03:07:28.396Z,93183.25
2023-01-17T03:10:14.843Z,93171.69
2023-01-17T03:13:01.016Z,93184.75
2023-01-17T03:15:46.943Z,93147.31
2023-01-17T03:18:32.933Z,93154.69
2023-01-17T03:21:18.901Z,93141.13
2023-01-17T03:24:05.310Z,93159.38
2023-01-17T03:26:51.511Z,93164.28
2023-01-17T03:29:37.306Z,93173.66
2023-01-17T03:32:23.487Z,93177.84
2023-01-17T03:35:09.844Z,93180.28
2023-01-17T03:37:56.414Z,93161.31
2023-01-17T03:40:42.745Z,93179.06
2023-01-17T03:43:28.884Z,93189.91
2023-01-17T03:46:21.850Z,93178.34
2023-01-17T03:49:08.758Z,93189.19
2023-01-17T03:51:55.063Z,93170.22
2023-01-17T03:54:40.984Z,93157.41
2023-01-17T03:57:27.052Z,93153.47
2023-01-17T04:00:13.541Z,93164.03
2023-01-17T04:02:59.737Z,93183.00
2023-01-17T04:05:45.727Z,93177.13
2023-01-17T04:08:31.736Z,93189.19
2023-01-17T04:11:18.023Z,93179.81
2023-01-17T04:14:04.255Z,93185.97
2023-01-17T04:16:50.204Z,93193.38
2023-01-17T04:19:36.576Z,93201.50
2023-01-17T04:22:22.657Z,93219.69
2023-01-17T04:25:09.029Z,93206.16
2023-01-17T04:27:55.489Z,93197.56
2023-01-17T04:30:41.608Z,93204.19
2023-01-17T04:33:27.509Z,93200.75
2023-01-17T04:36:13.730Z,93199.25
2023-01-17T04:38:59.790Z,93196.81
2023-01-17T04:41:45.803Z,93215.03
2023-01-17T04:44:32.283Z,93202.22
2023-01-17T04:47:18.298Z,93200.75
2023-01-17T04:50:04.449Z,93184.47
2023-01-17T04:52:50.278Z,93196.06
2023-01-17T04:55:36.638Z,93244.09
2023-01-17T04:58:22.468Z,93229.31
2023-01-17T05:01:08.771Z,93226.59
2023-01-17T05:03:54.637Z,93245.56
2023-01-17T05:06:40.428Z,93244.84
2023-01-17T05:09:26.602Z,93236.72
2023-01-17T05:12:12.783Z,93231.75
2023-01-17T05:14:58.825Z,93267.69
2023-01-17T05:17:44.805Z,93248.47
2023-01-17T05:20:30.858Z,93268.63
2023-01-17T05:23:16.796Z,93227.25
2023-01-17T05:26:02.881Z,93234.66
2023-01-17T05:28:49.177Z,93213.72
2023-01-17T05:31:35.597Z,93215.94
2023-01-17T05:34:21.877Z,93208.28
2023-01-17T05:37:07.970Z,93212.03
2023-01-17T05:39:54.171Z,93225.06
2023-01-17T05:42:44.306Z,93217.69
2023-01-17T05:45:31.384Z,93200.94
2023-01-17T05:48:17.517Z,93195.53
2023-01-17T05:51:03.817Z,93195.53
2023-01-17T05:53:49.839Z,93181.72
2023-01-17T05:56:36.053Z,93164.75
2023-01-17T05:59:35.971Z,93173.34
2023-01-17T06:02:22.757Z,93160.06
2023-01-17T06:05:09.336Z,93168.69
2023-01-17T06:07:56.674Z,93174.56
2023-01-17T06:10:42.555Z,93175.78
2023-01-17T06:13:28.803Z,93161.50
2023-01-17T06:16:14.511Z,93177.78
2023-01-17T06:19:00.679Z,93156.81
2023-01-17T06:21:46.791Z,93144.75
2023-01-17T06:24:33.995Z,93154.88
2023-01-17T06:27:20.147Z,93164.94
2023-01-17T06:30:06.746Z,93156.34
2023-01-17T06:32:53.954Z,93169.41
2023-01-17T06:35:44.309Z,93212.75
2023-01-17T06:38:31.590Z,93185.66
2023-01-17T06:41:17.854Z,93224.59
2023-01-17T06:44:04.153Z,93213.28
2023-01-17T06:46:50.830Z,93195.53
2023-01-17T06:49:37.007Z,93210.84
2023-01-17T06:52:22.975Z,93201.97
2023-01-17T06:55:09.973Z,93196.81
2023-01-17T06:57:56.802Z,93196.06
2023-01-17T07:00:43.435Z,93209.88
2023-01-17T07:03:29.649Z,93207.66
2023-01-17T07:06:15.895Z,93202.22
2023-01-17T07:09:01.910Z,93193.84
2023-01-17T07:11:48.373Z,93195.81
2023-01-17T07:14:34.306Z,93208.59
2023-01-17T07:17:20.501Z,93185.72
2023-01-17T07:20:07.081Z,93187.69
2023-01-17T07:22:53.308Z,93183.00
2023-01-17T07:25:39.351Z,93183.00
2023-01-17T07:28:25.939Z,93180.28
2023-01-17T07:31:12.074Z,93183.00
2023-01-17T07:33:59.191Z,93195.31
2023-01-17T07:36:45.716Z,93213.06
2023-01-17T07:39:31.589Z,93188.94
2023-01-17T07:42:17.948Z,93188.94
2023-01-17T07:45:04.634Z,93186.53
2023-01-17T07:47:50.402Z,93186.53
2023-01-17T07:50:36.675Z,93179.88
2023-01-17T07:53:23.514Z,93184.06
2023-01-17T07:56:10.252Z,93182.09
2023-01-17T07:58:57.298Z,93172.00
2023-01-17T08:01:43.728Z,93158.47
2023-01-17T08:04:34.799Z,93190.72
2023-01-17T08:07:21.108Z,93187.25
2023-01-17T08:10:08.845Z,93191.19
2023-01-17T08:12:55.437Z,93198.56
2023-01-17T08:15:41.502Z,93206.69
2023-01-17T08:18:28.154Z,93211.38
2023-01-17T08:21:15.004Z,93207.91
2023-01-17T08:24:00.939Z,93220.97
2023-01-17T08:26:47.472Z,93215.34
2023-01-17T08:29:33.590Z,93210.19
2023-01-17T08:32:21.373Z,93206.53
2023-01-17T08:35:08.424Z,93219.59
2023-01-17T08:37:55.096Z,93222.56
2023-01-17T08:40:41.169Z,93222.84
2023-01-17T08:43:27.538Z,93231.00
2023-01-17T08:46:13.622Z,93219.03
2023-01-17T08:49:00.137Z,93214.13
2023-01-17T08:51:46.456Z,93204.00
2023-01-17T08:54:32.783Z,93191.41
2023-01-17T08:57:19.499Z,93185.75
2023-01-17T09:00:07.730Z,93196.31
2023-01-17T09:02:54.333Z,93187.44
2023-01-17T09:05:40.346Z,93206.00
2023-01-17T09:08:26.313Z,93181.38
2023-01-17T09:11:13.204Z,93207.00
2023-01-17T09:13:59.414Z,93188.03
2023-01-17T09:16:45.379Z,93181.09
2023-01-17T09:19:31.355Z,93165.81
2023-01-17T09:22:17.642Z,93160.63
2023-01-17T09:25:03.659Z,93181.09
2023-01-17T09:27:50.319Z,93174.94
2023-01-17T09:30:36.497Z,93176.91
2023-01-17T09:33:25.761Z,93156.19
2023-01-17T09:36:12.367Z,93161.59
2023-01-17T09:38:58.631Z,93145.09
2023-01-17T09:42:03.388Z,93153.44
2023-01-17T09:44:52.183Z,93176.06
2023-01-17T09:47:40.626Z,93181.47
2023-01-17T09:50:29.802Z,93144.97
2023-01-17T09:53:20.926Z,93186.59
2023-01-17T09:56:15.562Z,93165.88
2023-01-17T09:59:37.230Z,93179.16
2023-01-17T10:02:26.697Z,93190.47
2023-01-17T10:05:31.340Z,93208.72
2023-01-17T10:08:20.676Z,93207.94
2023-01-17T10:11:27.229Z,93192.19
2023-01-17T10:14:18.947Z,93206.69
2023-01-17T10:17:13.862Z,93201.25
2023-01-17T10:20:12.312Z,93202.47
2023-01-17T10:23:02.224Z,93190.41
2023-01-17T10:25:51.043Z,93199.47
2023-01-17T10:28:49.382Z,93218.91
2023-01-17T10:31:39.305Z,93212.03
2023-01-17T10:34:28.963Z,93225.31
2023-01-17T10:37:24.858Z,93211.50
2023-01-17T10:40:41.724Z,93220.81
2023-01-17T10:43:34.680Z,93237.06
2023-01-17T10:46:22.925Z,93229.44
2023-01-17T10:49:14.702Z,93221.78
2023-01-17T10:52:03.588Z,93209.19
2023-01-17T10:55:08.827Z,93212.38
2023-01-17T10:57:54.673Z,93210.16
2023-01-17T11:00:45.472Z,93202.03
2023-01-17T11:03:32.202Z,93198.31
2023-01-17T11:06:19.161Z,93208.41
2023-01-17T11:09:11.871Z,93189.91
2023-01-17T11:11:57.834Z,93190.88
2023-01-17T11:14:58.104Z,93194.06
2023-01-17T11:17:53.051Z,93174.84
2023-01-17T11:20:39.726Z,93178.78
2023-01-17T11:23:34.875Z,93187.16
2023-01-17T11:26:23.366Z,93158.06
2023-01-17T11:29:31.645Z,93165.44
2023-01-17T11:32:32.043Z,93160.53
2023-01-17T11:35:28.011Z,93151.38
2023-01-17T11:38:20.804Z,93146.72
2023-01-17T11:41:20.363Z,93105.09
2023-01-17T11:44:45.110Z,93120.88
2023-01-17T11:47:31.177Z,93110.69
2023-01-17T11:50:24.136Z,93093.72
2023-01-17T11:53:16.029Z,93141.69
2023-01-17T11:56:02.570Z,93113.63
2023-01-17T11:58:48.732Z,93116.34
2023-01-17T12:01:38.239Z,93056.03
2023-01-17T12:04:27.996Z,93085.81
2023-01-17T12:07:32.705Z,93121.00
2023-01-17T12:10:33.901Z,93091.22
2023-01-17T12:13:42.637Z,93097.84
2023-01-17T12:16:31.662Z,93089.25
2023-01-17T12:19:21.727Z,93087.78
2023-01-17T12:22:07.568Z,93067.31
2023-01-17T12:25:15.003Z,93078.91
2023-01-17T12:28:11.301Z,93057.72
2023-01-17T12:31:03.517Z,93067.81
2023-01-17T12:34:07.031Z,93044.94
2023-01-17T12:36:56.697Z,93074.44
2023-01-17T12:39:43.679Z,93067.28
2023-01-17T12:42:37.588Z,93060.41
2023-01-17T12:45:43.116Z,93063.56
2023-01-17T12:48:30.694Z,93070.69
2023-01-17T12:51:23.421Z,93076.09
2023-01-17T12:54:29.533Z,93058.38
2023-01-17T12:57:16.040Z,93024.41
2023-01-17T13:00:02.177Z,93034.50
2023-01-17T13:02:54.789Z,93044.13
2023-01-17T13:05:42.240Z,93053.72
2023-01-17T13:08:31.267Z,93062.09
2023-01-17T13:11:39.184Z,93049.25
2023-01-17T13:14:25.266Z,93052.97
2023-01-17T13:17:25.660Z,93055.94
2023-01-17T13:20:16.443Z,93049.03
2023-01-17T13:23:35.362Z,93033.06
2023-01-17T13:26:33.866Z,93053.50
2023-01-17T13:29:39.440Z,93053.75
2023-01-17T13:32:38.399Z,93052.28
2023-01-17T13:35:43.029Z,93062.63
2023-01-17T13:38:30.974Z,93042.94
2023-01-17T13:41:39.263Z,93043.66
2023-01-17T13:44:27.563Z,93037.78
2023-01-17T13:47:17.377Z,93048.59
2023-01-17T13:50:03.624Z,93070.25
2023-01-17T13:52:49.975Z,93064.84
2023-01-17T13:55:47.044Z,93075.69
2023-01-17T13:58:51.164Z,93086.75
2023-01-17T14:01:49.756Z,93082.56
2023-01-17T14:04:55.523Z,93080.13
2023-01-17T14:07:48.566Z,93080.13
2023-01-17T14:10:36.482Z,93073.22
2023-01-17T14:13:25.756Z,93072.28
2023-01-17T14:16:21.316Z,93062.66
2023-01-17T14:19:13.409Z,93079.16
2023-01-17T14:22:29.202Z,93063.41
2023-01-17T14:25:17.513Z,93081.88
2023-01-17T14:28:04.552Z,93059.53
2023-01-17T14:30:54.468Z,93037.88
2023-01-17T14:33:40.983Z,93063.47
2023-01-17T14:36:28.003Z,93051.13
2023-01-17T14:39:20.923Z,93111.47
2023-01-17T14:42:06.904Z,93024.06
2023-01-17T14:44:56.800Z,93045.47
2023-01-17T14:47:43.367Z,93046.94
2023-01-17T14:50:30.457Z,93071.31
2023-01-17T14:53:28.031Z,93042.75
2023-01-17T14:56:15.328Z,93036.13
2023-01-17T14:59:05.149Z,93037.34
2023-01-17T15:02:06.130Z,93054.34
2023-01-17T15:04:54.073Z,93069.09
2023-01-17T15:07:40.434Z,93068.59
2023-01-17T15:10:27.767Z,93063.19
2023-01-17T15:13:14.008Z,93092.97
2023-01-17T15:16:04.401Z,93084.84
2023-01-17T15:18:50.965Z,93094.44
2023-01-17T15:21:40.654Z,93098.38
2023-01-17T15:24:27.614Z,93105.28
2023-01-17T15:27:14.649Z,93059.75
2023-01-17T15:30:02.761Z,93065.63
2023-01-17T15:32:51.266Z,93105.28
2023-01-17T15:35:37.286Z,93093.72
2023-01-17T15:38:23.521Z,93087.53
2023-01-17T15:41:15.959Z,93090.53
2023-01-17T15:44:02.408Z,93090.25
2023-01-17T15:46:48.600Z,93098.66
2023-01-17T15:49:34.797Z,93091.75
2023-01-17T15:52:21.631Z,93083.19
2023-01-17T15:55:12.484Z,93092.78
2023-01-17T15:57:58.745Z,93095.75
2023-01-17T16:00:47.060Z,93129.72
2023-01-17T16:03:33.335Z,93088.63
2023-01-17T16:06:36.322Z,93107.59
2023-01-17T16:09:22.461Z,93081.75
2023-01-17T16:12:08.416Z,93106.38
2023-01-17T16:15:11.293Z,93084.72
2023-01-17T16:17:58.776Z,93094.56
2023-01-17T16:20:46.878Z,93077.09
2023-01-17T16:23:32.876Z,93070.22
2023-01-17T16:26:19.253Z,93073.66
2023-01-17T16:29:05.283Z,93082.53
2023-01-17T16:31:51.175Z,93091.41
2023-01-17T16:34:37.388Z,93084.25
2023-01-17T16:37:23.931Z,93081.28
2023-01-17T16:40:10.546Z,93090.91
2023-01-17T16:42:56.844Z,93084.25
2023-01-17T16:45:53.220Z,93080.06
2023-01-17T16:48:39.514Z,93078.84
2023-01-17T16:51:25.664Z,93094.38
2023-01-17T16:54:12.111Z,93078.84
2023-01-17T16:56:58.170Z,93085.50
2023-01-17T16:59:50.629Z,93078.84
2023-01-17T17:02:39.037Z,93081.56
2023-01-17T17:05:26.105Z,93070.97
2023-01-17T17:08:12.045Z,93072.97
2023-01-17T17:11:13.274Z,93069.75
2023-01-17T17:13:59.237Z,93081.34
2023-01-17T17:16:47.580Z,93072.47
2023-01-17T17:19:34.447Z,93053.81
2023-01-17T17:22:20.549Z,93059.94
2023-01-17T17:25:07.155Z,93037.56
2023-01-17T17:27:53.810Z,93034.34
2023-01-17T17:30:40.465Z,93031.88
2023-01-17T17:33:26.441Z,93041.03
2023-01-17T17:36:12.587Z,93041.03
2023-01-17T17:38:58.974Z,93038.31
2023-01-17T17:41:45.936Z,93027.22
2023-01-17T17:44:32.269Z,93008.75
2023-01-17T17:47:18.790Z,93008.28
2023-01-17T17:50:05.465Z,93014.41
2023-01-17T17:52:51.464Z,93017.88
2023-01-17T17:55:38.308Z,92984.63
2023-01-17T17:58:25.635Z,92973.06
2023-01-17T18:01:11.767Z,92986.88
2023-01-17T18:04:00.526Z,92987.59
2023-01-17T18:06:46.574Z,92965.94
2023-01-17T18:09:32.528Z,92985.63
2023-01-17T18:12:18.520Z,92988.34
2023-01-17T18:15:05.014Z,92973.59
2023-01-17T18:17:52.576Z,92987.13
2023-01-17T18:20:38.365Z,92974.34
2023-01-17T18:23:24.630Z,92989.81
2023-01-17T18:26:21.684Z,92968.16
2023-01-17T18:29:09.667Z,92975.06
2023-01-17T18:31:55.775Z,92979.75
2023-01-17T18:34:42.407Z,92981.22
2023-01-17T18:37:28.403Z,92965.00
2023-01-17T18:40:14.846Z,92956.88
2023-01-17T18:43:00.741Z,92978.03
2023-01-17T18:45:53.495Z,92958.34
2023-01-17T18:48:39.973Z,92957.84
2023-01-17T18:51:25.941Z,92942.81
2023-01-17T18:54:12.056Z,92961.06
2023-01-17T18:56:58.300Z,92954.41
2023-01-17T18:59:44.753Z,92972.59
2023-01-17T19:02:30.764Z,92962.53
2023-01-17T19:05:18.111Z,92982.22
2023-01-17T19:08:03.943Z,92957.84
2023-01-17T19:10:49.965Z,93022.84
2023-01-17T19:13:36.220Z,92997.25
2023-01-17T19:16:28.133Z,92976.31
2023-01-17T19:19:14.938Z,92979.50
2023-01-17T19:22:01.096Z,92967.44
2023-01-17T19:24:47.272Z,92939.13
2023-01-17T19:27:33.570Z,92949.97
2023-01-17T19:30:20.049Z,92939.88
2023-01-17T19:33:06.018Z,92925.88
2023-01-17T19:35:52.055Z,92950.25
2023-01-17T19:38:38.108Z,92967.97
2023-01-17T19:41:26.662Z,92959.84
2023-01-17T19:44:13.453Z,92949.03
2023-01-17T19:46:59.739Z,92977.13
2023-01-17T19:49:45.716Z,92991.94
2023-01-17T19:52:31.816Z,92975.19
2023-01-17T19:55:18.283Z,92971.00
2023-01-17T19:58:04.407Z,92950.88
2023-01-17T20:00:52.437Z,92938.75
2023-01-17T20:03:38.544Z,92931.16
2023-01-17T20:06:24.947Z,92945.94
2023-01-17T20:09:11.299Z,92922.47
2023-01-17T20:11:57.341Z,92913.28
2023-01-17T20:14:43.403Z,92918.72
2023-01-17T20:17:29.675Z,92919.44
2023-01-17T20:20:16.276Z,92901.91
2023-01-17T20:23:05.573Z,92906.84
2023-01-17T20:25:59.244Z,92901.91
2023-01-17T20:28:45.980Z,92914.47
2023-01-17T20:31:32.410Z,92884.41
2023-01-17T20:34:18.740Z,92903.81
2023-01-17T20:37:04.555Z,92932.16
2023-01-17T20:39:50.325Z,92928.72
2023-01-17T20:42:36.741Z,92917.63
2023-01-17T20:45:23.059Z,92914.91
2023-01-17T20:48:09.603Z,92933.13
2023-01-17T20:50:55.773Z,92892.97
2023-01-17T20:53:42.219Z,92905.03
2023-01-17T20:56:30.192Z,92883.34
2023-01-17T20:59:16.957Z,92891.47
2023-01-17T21:02:03.414Z,92846.66
2023-01-17T21:04:49.754Z,92866.84
2023-01-17T21:07:35.845Z,92861.44
2023-01-17T21:10:22.151Z,92809.94
2023-01-17T21:13:08.066Z,92824.97
2023-01-17T21:15:54.329Z,92843.69
2023-01-17T21:18:40.444Z,92822.78
2023-01-17T21:21:26.966Z,92843.69
2023-01-17T21:24:18.475Z,92826.22
2023-01-17T21:27:04.848Z,92815.63
2023-01-17T21:29:52.984Z,92807.00
2023-01-17T21:32:39.291Z,92795.41
2023-01-17T21:35:26.562Z,92795.94
2023-01-17T21:38:13.823Z,92797.47
2023-01-17T21:41:00.165Z,92793.25
2023-01-17T21:43:46.538Z,92775.03
2023-01-17T21:46:32.621Z,92786.63
2023-01-17T21:49:19.212Z,92783.44
2023-01-17T21:52:05.027Z,92775.53
2023-01-17T21:55:10.125Z,92760.25
2023-01-17T21:58:14.978Z,92763.47
2023-01-17T22:01:18.280Z,92762.22
2023-01-17T22:04:04.523Z,92773.81
2023-01-17T22:06:50.829Z,92754.81
2023-01-17T22:09:36.973Z,92789.84
2023-01-17T22:12:22.857Z,92781.94
2023-01-17T22:15:09.304Z,92765.44
2023-01-17T22:17:55.714Z,92769.09
2023-01-17T22:20:42.320Z,92730.66
2023-01-17T22:23:28.570Z,92743.97
2023-01-17T22:26:14.595Z,92786.13
2023-01-17T22:29:00.662Z,92736.56
2023-01-17T22:31:46.640Z,92745.94
2023-01-17T22:34:32.741Z,92764.44
2023-01-17T22:37:18.782Z,92794.50
2023-01-17T22:40:05.953Z,92799.94
2023-01-17T22:42:51.988Z,92783.38
2023-01-17T22:45:37.939Z,92745.19
2023-01-17T22:48:24.053Z,92770.81
2023-01-17T22:51:11.042Z,92762.22
2023-01-17T22:53:58.007Z,92798.97
2023-01-17T22:56:43.882Z,92732.09
2023-01-17T22:59:29.926Z,92758.75
2023-01-17T23:02:16.720Z,92782.66
2023-01-17T23:05:02.877Z,92780.19
2023-01-17T23:07:52.103Z,92776.75
2023-01-17T23:10:56.713Z,92789.84
2023-01-17T23:13:42.959Z,92779.97
2023-01-17T23:16:55.130Z,92745.69
2023-01-17T23:19:42.392Z,92781.69
2023-01-17T23:22:29.111Z,92776.03
2023-01-17T23:25:15.145Z,92757.28
2023-01-17T23:28:19.915Z,92733.88
2023-01-17T23:31:09.396Z,92757.28
2023-01-17T23:33:55.341Z,92697.41
2023-01-17T23:36:41.458Z,92744.72
2023-01-17T23:39:28.621Z,92733.63
2023-01-17T23:42:53.609Z,92766.66
2023-01-17T23:45:39.688Z,92775.03
2023-01-17T23:48:28.858Z,92763.97
2023-01-17T23:51:15.210Z,92795.00
2023-01-17T23:54:05.428Z,92768.88
2023-01-17T23:56:51.636Z,92775.28
2023-01-17T23:59:38.120Z,92750.16
